X  Chiuso Dati meteorologici dell'aviazione (METAR)        ETNH Flugplatz Hohn Airport
Temperatura
5°C Temperatura
2°C Punto di rugiada
81% Umidità



Vento
17 KM/O
10 MPH
4 M/S
9 KTS



120°
ESE
Condizioni attuali

Mostly Cloudy Prevalentemente nuvoloso
Pressione 1011 (hPa) - 29.85 (inHg)
Visibilità 6 (miglio) - 10 (km)
Aeroporto
Codice-Aeroporto ETNH

Posizione: Flugplatz Hohn Airport
Distanza: 40 (km)

Metar:
METAR ETNH 280720Z 12009KT 9999 BKN060 BKN140 05/02 Q1011 BLU BLU TEMPO WHT

Ore: 28-11-2022 08:20 CET